createdAt,value
2022-07-28T00:01:10.272Z,2.10
2022-07-28T00:03:38.054Z,1.50
2022-07-28T00:06:07.289Z,1.90
2022-07-28T00:08:35.157Z,1.95
2022-07-28T00:11:02.940Z,1.73
2022-07-28T00:13:30.847Z,1.52
2022-07-28T00:15:58.774Z,2.20
2022-07-28T00:18:26.526Z,2.13
2022-07-28T00:20:54.261Z,1.58
2022-07-28T00:23:23.389Z,1.80
2022-07-28T00:26:08.439Z,1.90
2022-07-28T00:28:37.273Z,2.03
2022-07-28T00:31:07.189Z,2.00
2022-07-28T00:33:36.642Z,2.10
2022-07-28T00:36:05.309Z,1.92
2022-07-28T00:38:35.986Z,1.90
2022-07-28T00:41:13.798Z,1.83
2022-07-28T00:43:44.914Z,1.92
2022-07-28T00:46:15.263Z,1.65
2022-07-28T00:48:46.915Z,1.73
2022-07-28T00:51:17.372Z,2.17
2022-07-28T00:53:48.366Z,1.85
2022-07-28T00:56:16.801Z,1.83
2022-07-28T00:58:44.752Z,1.92
2022-07-28T01:01:15.876Z,1.92
2022-07-28T01:03:48.254Z,1.85
2022-07-28T01:06:40.656Z,1.88
2022-07-28T01:09:25.563Z,2.10
2022-07-28T01:14:39.489Z,1.75
2022-07-28T01:17:15.017Z,2.10
2022-07-28T01:19:53.354Z,1.83
2022-07-28T01:22:30.775Z,1.92
2022-07-28T01:25:13.764Z,1.98
2022-07-28T01:28:02.829Z,1.90
2022-07-28T01:30:38.953Z,1.77
2022-07-28T01:33:16.243Z,2.10
2022-07-28T01:35:48.694Z,1.67
2022-07-28T01:38:20.809Z,2.15
2022-07-28T01:40:52.737Z,2.03
2022-07-28T01:43:25.037Z,1.52
2022-07-28T01:45:57.149Z,2.25
2022-07-28T01:48:28.492Z,1.67
2022-07-28T01:50:58.596Z,1.40
2022-07-28T01:53:27.330Z,1.85
2022-07-28T01:55:57.768Z,2.08
2022-07-28T01:58:29.095Z,1.80
2022-07-28T02:01:00.041Z,1.92
2022-07-28T02:03:32.318Z,1.92
2022-07-28T02:06:03.650Z,2.38
2022-07-28T02:08:33.398Z,2.15
2022-07-28T02:11:20.075Z,1.80
2022-07-28T02:13:51.622Z,1.40
2022-07-28T02:16:25.736Z,1.70
2022-07-28T02:18:57.815Z,1.88
2022-07-28T02:21:27.310Z,1.90
2022-07-28T02:23:57.208Z,1.63
2022-07-28T02:26:37.808Z,1.65
2022-07-28T02:29:27.650Z,1.80
2022-07-28T02:32:23.920Z,2.08
2022-07-28T02:35:06.245Z,1.70
2022-07-28T02:37:42.143Z,1.58
2022-07-28T02:40:16.201Z,1.63
2022-07-28T02:42:49.619Z,1.70
2022-07-28T02:45:25.350Z,1.50
2022-07-28T02:48:01.313Z,1.70
2022-07-28T02:50:30.632Z,1.58
2022-07-28T02:53:15.742Z,1.60
2022-07-28T02:55:48.140Z,1.90
2022-07-28T02:58:19.444Z,1.85
2022-07-28T03:00:50.546Z,1.95
2022-07-28T03:03:21.018Z,1.60
2022-07-28T03:05:49.519Z,1.92
2022-07-28T03:08:18.541Z,1.90
2022-07-28T03:10:46.383Z,1.60
2022-07-28T03:13:14.255Z,1.73
2022-07-28T03:15:42.667Z,1.50
2022-07-28T03:18:10.432Z,1.58
2022-07-28T03:20:39.561Z,1.80
2022-07-28T03:23:08.094Z,2.10
2022-07-28T03:25:44.731Z,1.83
2022-07-28T03:28:19.531Z,1.65
2022-07-28T03:30:57.153Z,1.55
2022-07-28T03:33:25.681Z,2.05
2022-07-28T03:35:59.073Z,1.70
2022-07-28T03:38:34.693Z,1.65
2022-07-28T03:41:04.738Z,2.00
2022-07-28T03:43:34.713Z,2.28
2022-07-28T03:46:02.939Z,1.90
2022-07-28T03:48:32.077Z,1.73
2022-07-28T03:51:01.668Z,1.90
2022-07-28T03:53:30.694Z,1.67
2022-07-28T03:55:58.972Z,1.80
2022-07-28T03:58:29.344Z,1.58
2022-07-28T04:00:58.627Z,1.58
2022-07-28T04:03:36.727Z,2.25
2022-07-28T04:06:12.711Z,2.05
2022-07-28T04:08:40.583Z,2.22
2022-07-28T04:11:08.397Z,2.05
2022-07-28T04:13:37.206Z,2.10
2022-07-28T04:16:07.462Z,2.17
2022-07-28T04:18:36.018Z,1.80
2022-07-28T04:21:03.985Z,1.98
2022-07-28T04:23:33.615Z,2.08
2022-07-28T04:26:01.437Z,2.17
2022-07-28T04:28:29.311Z,2.13
2022-07-28T04:30:57.189Z,1.52
2022-07-28T04:33:25.529Z,2.10
2022-07-28T04:35:54.009Z,2.22
2022-07-28T04:38:21.901Z,2.00
2022-07-28T04:40:51.271Z,2.10
2022-07-28T04:43:19.021Z,2.13
2022-07-28T04:45:53.906Z,2.05
2022-07-28T04:48:23.202Z,1.90
2022-07-28T04:50:52.613Z,2.00
2022-07-28T04:53:20.889Z,1.70
2022-07-28T04:55:49.292Z,2.50
2022-07-28T04:58:19.532Z,1.80
2022-07-28T05:00:50.328Z,2.10
2022-07-28T05:03:19.304Z,2.05
2022-07-28T05:05:51.418Z,2.15
2022-07-28T05:08:26.346Z,1.90
2022-07-28T05:10:56.862Z,2.22
2022-07-28T05:13:31.846Z,1.90
2022-07-28T05:16:02.777Z,1.98
2022-07-28T05:18:30.706Z,1.50
2022-07-28T05:20:58.570Z,2.28
2022-07-28T05:23:26.429Z,1.83
2022-07-28T05:25:54.428Z,1.58
2022-07-28T05:28:22.265Z,1.88
2022-07-28T05:30:51.392Z,2.28
2022-07-28T05:33:19.203Z,2.25
2022-07-28T05:35:54.796Z,1.90
2022-07-28T05:38:22.719Z,2.03
2022-07-28T05:40:51.006Z,1.85
2022-07-28T05:43:19.082Z,1.90
2022-07-28T05:45:47.501Z,2.25
2022-07-28T05:48:19.257Z,1.65
2022-07-28T05:50:47.479Z,1.90
2022-07-28T05:53:15.812Z,2.17
2022-07-28T05:56:00.742Z,2.00
2022-07-28T05:58:31.454Z,2.00
2022-07-28T06:01:01.870Z,2.03
2022-07-28T06:03:39.830Z,2.00
2022-07-28T06:06:15.541Z,1.95
2022-07-28T06:08:46.409Z,2.00
2022-07-28T06:11:22.061Z,1.80
2022-07-28T06:13:52.641Z,2.40
2022-07-28T06:16:23.166Z,2.22
2022-07-28T06:18:53.028Z,2.10
2022-07-28T06:21:24.738Z,2.40
2022-07-28T06:23:52.514Z,1.88
2022-07-28T06:26:23.561Z,2.20
2022-07-28T06:28:51.922Z,1.92
2022-07-28T06:31:19.748Z,2.00
2022-07-28T06:33:47.647Z,2.60
2022-07-28T06:36:16.774Z,2.40
2022-07-28T06:38:44.523Z,2.60
2022-07-28T06:41:12.377Z,2.00
2022-07-28T06:43:40.209Z,2.55
2022-07-28T06:46:08.340Z,2.30
2022-07-28T06:48:37.476Z,2.15
2022-07-28T06:51:05.956Z,2.20
2022-07-28T06:53:35.269Z,2.40
2022-07-28T06:56:05.098Z,2.40
2022-07-28T06:58:33.094Z,2.50
2022-07-28T07:01:02.492Z,2.13
2022-07-28T07:03:30.710Z,2.00
2022-07-28T07:05:58.459Z,2.05
2022-07-28T07:08:26.458Z,2.35
2022-07-28T07:10:56.806Z,2.33
2022-07-28T07:13:25.172Z,1.90
2022-07-28T07:15:53.424Z,2.75
2022-07-28T07:18:21.494Z,2.38
2022-07-28T07:20:49.538Z,2.03
2022-07-28T07:23:17.321Z,2.40
2022-07-28T07:25:45.093Z,2.67
2022-07-28T07:28:14.192Z,2.50
2022-07-28T07:30:41.977Z,2.13
2022-07-28T07:33:10.746Z,2.40
2022-07-28T07:35:38.982Z,2.10
2022-07-28T07:38:07.043Z,2.00
2022-07-28T07:40:35.351Z,2.53
2022-07-28T07:43:03.254Z,2.30
2022-07-28T07:45:34.188Z,2.30
2022-07-28T07:48:02.855Z,2.38
2022-07-28T07:50:31.287Z,2.30
2022-07-28T07:52:59.177Z,2.05
2022-07-28T07:55:26.960Z,2.40
2022-07-28T07:58:02.154Z,2.38
2022-07-28T08:00:30.303Z,2.33
2022-07-28T08:03:00.210Z,2.72
2022-07-28T08:05:35.830Z,2.47
2022-07-28T08:08:05.970Z,2.60
2022-07-28T08:10:34.267Z,2.00
2022-07-28T08:13:03.047Z,2.50
2022-07-28T08:15:30.899Z,2.70
2022-07-28T08:18:00.203Z,2.78
2022-07-28T08:20:28.241Z,2.63
2022-07-28T08:22:58.485Z,2.50
2022-07-28T08:25:26.969Z,2.50
2022-07-28T08:27:54.777Z,2.60
2022-07-28T08:30:27.537Z,2.35
2022-07-28T08:33:02.647Z,2.78
2022-07-28T08:35:33.557Z,2.20
2022-07-28T08:38:04.863Z,3.00
2022-07-28T08:40:33.524Z,2.17
2022-07-28T08:43:13.566Z,2.50
2022-07-28T08:45:48.739Z,2.17
2022-07-28T08:48:22.199Z,2.45
2022-07-28T08:50:52.314Z,2.53
2022-07-28T08:53:21.564Z,2.83
2022-07-28T08:55:50.129Z,2.53
2022-07-28T08:58:18.569Z,2.60
2022-07-28T09:00:48.074Z,2.75
2022-07-28T09:03:18.489Z,3.13
2022-07-28T09:05:47.004Z,2.67
2022-07-28T09:08:17.983Z,2.80
2022-07-28T09:10:45.800Z,3.42
2022-07-28T09:13:13.759Z,3.10
2022-07-28T09:15:44.463Z,2.50
2022-07-28T09:18:12.325Z,2.70
2022-07-28T09:20:44.010Z,2.70
2022-07-28T09:23:42.077Z,2.53
2022-07-28T09:26:11.240Z,2.45
2022-07-28T09:28:49.764Z,3.78
2022-07-28T09:31:19.497Z,2.72
2022-07-28T09:34:01.358Z,2.70
2022-07-28T09:36:31.997Z,2.95
2022-07-28T09:38:59.766Z,2.90
2022-07-28T09:41:27.543Z,2.85
2022-07-28T09:43:56.008Z,3.13
2022-07-28T09:46:27.466Z,2.53
2022-07-28T09:48:59.870Z,3.00
2022-07-28T09:51:32.566Z,2.50
2022-07-28T09:54:10.748Z,2.95
2022-07-28T09:56:39.507Z,3.17
2022-07-28T09:59:08.529Z,2.80
2022-07-28T10:01:53.193Z,2.80
2022-07-28T10:04:35.602Z,2.95
2022-07-28T10:07:09.670Z,2.75
2022-07-28T10:09:39.163Z,2.50
2022-07-28T10:12:22.148Z,2.58
2022-07-28T10:14:52.460Z,3.58
2022-07-28T10:17:29.384Z,4.10
2022-07-28T10:19:59.233Z,9.93
2022-07-28T10:22:33.545Z,4.18
2022-07-28T10:27:32.473Z,3.38
2022-07-28T10:30:03.613Z,3.22
2022-07-28T10:32:39.295Z,3.10
2022-07-28T10:35:11.661Z,3.33
2022-07-28T10:37:51.374Z,2.92
2022-07-28T10:40:27.249Z,2.70
2022-07-28T10:42:56.471Z,2.95
2022-07-28T10:45:41.968Z,2.70
2022-07-28T10:51:28.209Z,2.58
2022-07-28T10:54:09.990Z,2.47
2022-07-28T10:56:49.094Z,2.15
2022-07-28T10:59:43.074Z,2.70
2022-07-28T11:02:52.196Z,2.60
2022-07-28T11:05:36.275Z,2.15
2022-07-28T11:08:08.895Z,2.92
2022-07-28T11:10:49.897Z,2.33
2022-07-28T11:13:33.065Z,2.60
2022-07-28T11:16:21.789Z,2.72
2022-07-28T11:19:37.444Z,2.13
2022-07-28T11:22:33.189Z,2.35
2022-07-28T11:25:22.281Z,2.13
2022-07-28T11:28:05.699Z,2.35
2022-07-28T11:30:54.534Z,2.80
2022-07-28T11:33:24.645Z,2.22
2022-07-28T11:35:58.490Z,2.50
2022-07-28T11:38:27.686Z,2.33
2022-07-28T11:40:57.195Z,2.33
2022-07-28T11:43:47.451Z,2.55
2022-07-28T11:46:37.357Z,2.20
2022-07-28T11:49:27.570Z,2.42
2022-07-28T11:52:19.542Z,2.38
2022-07-28T11:54:55.790Z,2.25
2022-07-28T11:57:26.400Z,1.92
2022-07-28T12:00:02.275Z,2.05
2022-07-28T12:02:34.145Z,2.28
2022-07-28T12:05:12.747Z,2.13
2022-07-28T12:07:50.352Z,2.00
2022-07-28T12:10:53.163Z,2.40
2022-07-28T12:13:28.564Z,2.38
2022-07-28T12:15:57.892Z,2.53
2022-07-28T12:18:25.831Z,2.33
2022-07-28T12:20:54.682Z,2.30
2022-07-28T12:23:38.731Z,2.72
2022-07-28T12:26:12.143Z,2.22
2022-07-28T12:28:40.205Z,1.90
2022-07-28T12:31:13.329Z,1.88
2022-07-28T12:33:41.418Z,2.00
2022-07-28T12:36:10.263Z,2.10
2022-07-28T12:38:38.582Z,1.90
2022-07-28T12:41:15.966Z,2.20
2022-07-28T12:43:51.663Z,2.33
2022-07-28T12:46:28.443Z,2.28
2022-07-28T12:48:58.456Z,1.95
2022-07-28T12:51:38.342Z,2.30
2022-07-28T12:54:08.589Z,1.73
2022-07-28T12:56:47.404Z,1.88
2022-07-28T12:59:18.274Z,2.47
2022-07-28T13:01:50.597Z,2.00
2022-07-28T13:04:41.433Z,2.25
2022-07-28T13:07:12.893Z,2.03
2022-07-28T13:09:50.190Z,1.95
2022-07-28T13:12:30.709Z,2.10
2022-07-28T13:15:01.248Z,1.60
2022-07-28T13:17:49.446Z,2.40
2022-07-28T13:20:17.973Z,2.47
2022-07-28T13:22:46.590Z,1.90
2022-07-28T13:25:15.490Z,2.30
2022-07-28T13:27:43.396Z,2.30
2022-07-28T13:30:12.754Z,2.03
2022-07-28T13:32:41.986Z,2.38
2022-07-28T13:35:14.832Z,2.13
2022-07-28T13:37:43.106Z,1.95
2022-07-28T13:40:11.961Z,2.50
2022-07-28T13:42:39.728Z,1.90
2022-07-28T13:45:08.523Z,2.30
2022-07-28T13:47:39.074Z,1.95
2022-07-28T13:50:09.844Z,2.17
2022-07-28T13:52:39.215Z,2.20
2022-07-28T13:55:10.194Z,2.05
2022-07-28T13:57:37.982Z,2.15
2022-07-28T14:00:12.667Z,2.05
2022-07-28T14:02:44.305Z,2.15
2022-07-28T14:05:14.377Z,2.10
2022-07-28T14:07:48.785Z,2.45
2022-07-28T14:12:46.256Z,2.08
2022-07-28T14:15:14.827Z,2.15
2022-07-28T14:17:45.524Z,2.45
2022-07-28T14:20:16.933Z,2.10
2022-07-28T14:22:47.051Z,2.20
2022-07-28T14:25:21.088Z,1.85
2022-07-28T14:27:50.963Z,1.90
2022-07-28T14:30:20.206Z,2.05
2022-07-28T14:32:48.334Z,2.33
2022-07-28T14:35:17.617Z,2.15
2022-07-28T14:38:34.349Z,2.00
2022-07-28T14:40:39.148Z,2.10
2022-07-28T14:43:08.796Z,1.75
2022-07-28T14:46:12.340Z,2.05
2022-07-28T14:48:24.516Z,2.00
2022-07-28T14:50:55.334Z,2.28
2022-07-28T14:53:23.278Z,2.00
2022-07-28T14:55:51.119Z,2.45
2022-07-28T14:58:18.961Z,2.40
2022-07-28T15:00:46.944Z,2.35
2022-07-28T15:03:14.755Z,2.40
2022-07-28T15:05:42.586Z,2.00
2022-07-28T15:08:11.740Z,2.28
2022-07-28T15:10:39.822Z,1.83
2022-07-28T15:13:07.593Z,2.20
2022-07-28T15:15:39.491Z,2.30
2022-07-28T15:18:11.395Z,1.98
2022-07-28T15:20:40.262Z,2.15
2022-07-28T15:23:09.373Z,2.10
2022-07-28T15:25:38.811Z,2.00
2022-07-28T15:28:06.946Z,2.13
2022-07-28T15:30:34.895Z,2.40
2022-07-28T15:33:09.328Z,2.17
2022-07-28T15:35:58.209Z,2.22
2022-07-28T15:38:25.563Z,2.08
2022-07-28T15:40:54.731Z,2.05
2022-07-28T15:43:23.761Z,2.38
2022-07-28T15:45:52.231Z,2.08
2022-07-28T15:48:20.012Z,2.22
2022-07-28T15:50:48.603Z,2.15
2022-07-28T15:53:17.296Z,2.50
2022-07-28T15:55:50.657Z,2.10
2022-07-28T16:00:49.044Z,2.20
2022-07-28T16:03:17.178Z,2.10
2022-07-28T16:05:49.247Z,2.55
2022-07-28T16:08:17.729Z,2.25
2022-07-28T16:10:45.931Z,2.80
2022-07-28T16:13:17.177Z,2.25
2022-07-28T16:15:52.751Z,2.08
2022-07-28T16:18:20.567Z,1.85
2022-07-28T16:20:48.328Z,2.42
2022-07-28T16:23:16.415Z,2.50
2022-07-28T16:25:45.172Z,2.58
2022-07-28T16:28:14.031Z,2.13
2022-07-28T16:30:42.011Z,2.35
2022-07-28T16:33:11.118Z,2.80
2022-07-28T16:35:39.078Z,2.45
2022-07-28T16:38:07.553Z,2.30
2022-07-28T16:40:35.610Z,2.50
2022-07-28T16:43:06.008Z,2.60
2022-07-28T16:45:36.251Z,2.58
2022-07-28T16:48:04.708Z,2.40
2022-07-28T16:50:34.838Z,2.45
2022-07-28T16:53:04.850Z,2.53
2022-07-28T16:55:32.613Z,2.65
2022-07-28T16:58:00.387Z,3.08
2022-07-28T17:00:29.377Z,2.65
2022-07-28T17:02:57.222Z,2.35
2022-07-28T17:05:25.318Z,2.65
2022-07-28T17:07:54.440Z,2.33
2022-07-28T17:10:27.083Z,2.30
2022-07-28T17:12:56.113Z,2.50
2022-07-28T17:15:24.335Z,2.67
2022-07-28T17:17:52.492Z,2.53
2022-07-28T17:20:21.464Z,2.20
2022-07-28T17:22:49.684Z,2.13
2022-07-28T17:28:07.919Z,2.70
2022-07-28T17:30:36.676Z,2.03
2022-07-28T17:33:08.591Z,1.63
2022-07-28T17:35:37.391Z,2.15
2022-07-28T17:38:09.020Z,1.80
2022-07-28T17:40:39.936Z,2.20
2022-07-28T17:43:08.597Z,2.40
2022-07-28T17:45:36.361Z,2.67
2022-07-28T17:48:04.654Z,2.00
2022-07-28T17:50:32.377Z,2.30
2022-07-28T17:53:01.596Z,2.28
2022-07-28T17:55:57.457Z,2.22
2022-07-28T17:58:28.924Z,2.40
2022-07-28T18:01:09.276Z,2.00
2022-07-28T18:03:58.941Z,1.60
2022-07-28T18:06:30.583Z,2.03
2022-07-28T18:09:05.459Z,1.95
2022-07-28T18:11:35.170Z,2.05
2022-07-28T18:14:06.020Z,1.40
2022-07-28T18:16:34.878Z,1.98
2022-07-28T18:19:02.885Z,1.80
2022-07-28T18:21:30.656Z,1.65
2022-07-28T18:23:58.474Z,1.67
2022-07-28T18:26:26.268Z,1.60
2022-07-28T18:28:54.070Z,1.73
2022-07-28T18:31:23.354Z,1.13
2022-07-28T18:33:51.224Z,1.25
2022-07-28T18:36:18.987Z,1.30
2022-07-28T18:38:46.769Z,1.33
2022-07-28T18:41:14.504Z,1.55
2022-07-28T18:43:42.368Z,1.15
2022-07-28T18:46:10.159Z,1.00
2022-07-28T18:48:39.361Z,1.63
2022-07-28T18:51:07.148Z,1.33
2022-07-28T18:53:36.419Z,1.27
2022-07-28T18:56:04.706Z,1.40
2022-07-28T18:58:33.391Z,2.00
2022-07-28T19:01:01.205Z,1.85
2022-07-28T19:03:32.133Z,1.73
2022-07-28T19:06:01.433Z,2.65
2022-07-28T19:08:29.231Z,1.90
2022-07-28T19:10:57.012Z,1.40
2022-07-28T19:13:24.848Z,1.73
2022-07-28T19:15:52.670Z,1.52
2022-07-28T19:18:20.479Z,1.73
2022-07-28T19:20:48.270Z,1.45
2022-07-28T19:23:19.110Z,1.40
2022-07-28T19:25:46.897Z,1.10
2022-07-28T19:28:14.648Z,1.88
2022-07-28T19:30:44.864Z,1.40
2022-07-28T19:33:18.883Z,1.85
2022-07-28T19:38:14.747Z,1.50
2022-07-28T19:40:43.979Z,1.90
2022-07-28T19:43:11.975Z,1.63
2022-07-28T19:45:39.766Z,1.00
2022-07-28T19:48:07.962Z,1.40
2022-07-28T19:50:36.091Z,1.65
2022-07-28T19:53:04.148Z,1.63
2022-07-28T19:55:34.980Z,1.10
2022-07-28T19:58:06.058Z,1.45
2022-07-28T20:00:34.017Z,1.13
2022-07-28T20:03:01.842Z,1.65
2022-07-28T20:05:29.772Z,1.52
2022-07-28T20:07:57.628Z,1.63
2022-07-28T20:10:25.376Z,2.00
2022-07-28T20:12:53.788Z,1.35
2022-07-28T20:15:25.269Z,1.38
2022-07-28T20:17:53.361Z,1.42
2022-07-28T20:20:21.537Z,2.05
2022-07-28T20:22:49.888Z,1.65
2022-07-28T20:25:18.150Z,1.50
2022-07-28T20:27:45.973Z,1.60
2022-07-28T20:30:15.052Z,1.38
2022-07-28T20:32:45.038Z,1.63
2022-07-28T20:35:13.467Z,1.73
2022-07-28T20:37:41.270Z,1.50
2022-07-28T20:40:11.239Z,1.35
2022-07-28T20:42:39.042Z,1.90
2022-07-28T20:45:07.880Z,1.88
2022-07-28T20:47:35.987Z,1.30
2022-07-28T20:50:06.672Z,1.50
2022-07-28T20:52:34.711Z,1.33
2022-07-28T20:55:02.601Z,2.00
2022-07-28T20:57:30.364Z,2.40
2022-07-28T20:59:58.214Z,1.60
2022-07-28T21:02:26.099Z,1.70
2022-07-28T21:04:53.883Z,1.52
2022-07-28T21:07:59.925Z,1.75
2022-07-28T21:10:12.572Z,1.38
2022-07-28T21:12:40.501Z,1.60
2022-07-28T21:15:10.505Z,1.63
2022-07-28T21:17:38.326Z,1.77
2022-07-28T21:20:07.525Z,1.70
2022-07-28T21:22:36.611Z,1.50
2022-07-28T21:25:05.184Z,1.45
2022-07-28T21:27:52.919Z,2.03
2022-07-28T21:30:19.856Z,2.50
2022-07-28T21:32:55.607Z,2.05
2022-07-28T21:35:23.563Z,1.73
2022-07-28T21:37:52.980Z,1.70
2022-07-28T21:40:20.950Z,2.22
2022-07-28T21:42:48.942Z,2.10
2022-07-28T21:45:16.830Z,2.25
2022-07-28T21:47:44.867Z,1.92
2022-07-28T21:50:13.163Z,1.55
2022-07-28T21:52:41.134Z,1.83
2022-07-28T21:55:11.240Z,1.35
2022-07-28T21:57:39.306Z,1.80
2022-07-28T22:00:11.873Z,1.40
2022-07-28T22:02:40.733Z,1.58
2022-07-28T22:05:09.908Z,1.60
2022-07-28T22:07:37.711Z,1.90
2022-07-28T22:10:06.579Z,1.40
2022-07-28T22:12:35.759Z,1.45
2022-07-28T22:15:03.554Z,1.48
2022-07-28T22:17:31.487Z,1.45
2022-07-28T22:19:59.323Z,1.30
2022-07-28T22:22:27.106Z,1.60
2022-07-28T22:24:55.087Z,1.25
2022-07-28T22:27:23.017Z,1.85
2022-07-28T22:29:52.513Z,1.58
2022-07-28T22:32:28.777Z,1.38
2022-07-28T22:34:57.955Z,1.50
2022-07-28T22:37:25.777Z,1.67
2022-07-28T22:39:53.600Z,1.92
2022-07-28T22:42:21.449Z,1.38
2022-07-28T22:44:49.373Z,1.40
2022-07-28T22:47:18.524Z,1.35
2022-07-28T22:49:46.304Z,1.65
2022-07-28T22:52:14.183Z,2.00
2022-07-28T22:54:42.032Z,1.88
2022-07-28T22:57:09.935Z,1.70
2022-07-28T22:59:39.819Z,1.95
2022-07-28T23:02:09.644Z,1.73
2022-07-28T23:04:40.997Z,1.50
2022-07-28T23:07:13.431Z,1.80
2022-07-28T23:09:43.524Z,1.52
2022-07-28T23:12:12.451Z,1.90
2022-07-28T23:14:40.392Z,1.70
2022-07-28T23:17:08.176Z,1.83
2022-07-28T23:19:35.954Z,1.80
2022-07-28T23:22:05.223Z,1.83
2022-07-28T23:24:32.972Z,1.40
2022-07-28T23:27:01.211Z,1.60
2022-07-28T23:29:29.009Z,1.38
2022-07-28T23:31:56.852Z,1.50
2022-07-28T23:34:24.661Z,1.08
2022-07-28T23:36:52.554Z,1.40
2022-07-28T23:39:21.671Z,1.58
2022-07-28T23:41:49.476Z,0.95
2022-07-28T23:44:17.571Z,1.33
2022-07-28T23:46:45.666Z,1.58
2022-07-28T23:49:14.792Z,1.38
2022-07-28T23:51:47.682Z,1.25
2022-07-28T23:54:17.283Z,2.38
2022-07-28T23:56:46.920Z,1.48
2022-07-28T23:59:14.984Z,1.67
